createdAt,value
2023-04-01T09:52:12.044Z,3.78
2023-04-01T09:54:59.608Z,3.28
2023-04-01T09:57:54.524Z,3.55
2023-04-01T10:00:57.712Z,3.38
2023-04-01T10:04:02.296Z,3.50
2023-04-01T10:06:53.938Z,4.22
2023-04-01T10:10:08.676Z,3.70
2023-04-01T10:13:00.586Z,3.15
2023-04-01T10:15:53.286Z,2.78
2023-04-01T10:18:48.481Z,2.58
2023-04-01T10:22:54.185Z,3.28
2023-04-01T10:26:59.098Z,3.17
2023-04-01T10:30:58.870Z,2.20
2023-04-01T10:34:47.066Z,2.03
2023-04-01T10:38:36.741Z,1.70
2023-04-01T10:41:53.273Z,1.95
2023-04-01T10:45:06.448Z,2.67
2023-04-01T10:48:45.467Z,2.05
2023-04-01T10:51:19.880Z,2.85
2023-04-01T10:54:21.226Z,1.80
2023-04-01T10:56:56.820Z,1.48
2023-04-01T10:59:46.478Z,1.98
2023-04-01T11:02:46.830Z,2.10
2023-04-01T11:05:47.973Z,1.58
2023-04-01T11:08:51.568Z,2.00
2023-04-01T11:12:03.760Z,1.63
2023-04-01T11:15:11.821Z,2.03
2023-04-01T11:18:16.973Z,1.60
2023-04-01T11:21:18.592Z,1.67
2023-04-01T11:24:04.525Z,1.70
2023-04-01T11:26:45.680Z,2.00
2023-04-01T11:30:00.070Z,1.83
2023-04-01T11:32:46.758Z,2.08
2023-04-01T11:35:51.138Z,2.10
2023-04-01T11:38:33.281Z,1.90
2023-04-01T11:41:12.053Z,2.00
2023-04-01T11:43:48.259Z,1.73
2023-04-01T11:46:26.296Z,1.75
2023-04-01T11:49:06.510Z,2.03
2023-04-01T11:52:00.116Z,2.10
2023-04-01T11:54:48.636Z,2.17
2023-04-01T11:57:43.309Z,2.05
2023-04-01T12:00:28.126Z,2.30
2023-04-01T12:03:12.842Z,1.92
2023-04-01T12:05:49.509Z,2.28
2023-04-01T12:08:30.996Z,2.58
2023-04-01T12:11:07.607Z,2.17
2023-04-01T12:13:45.379Z,2.08
2023-04-01T12:16:28.280Z,2.25
2023-04-01T12:19:01.743Z,2.60
2023-04-01T12:21:40.762Z,1.83
2023-04-01T12:24:47.694Z,1.98
2023-04-01T12:27:44.083Z,1.90
2023-04-01T12:30:29.297Z,2.00
2023-04-01T12:33:16.979Z,2.00
2023-04-01T12:35:58.718Z,2.47
2023-04-01T12:38:38.102Z,1.50
2023-04-01T12:41:14.247Z,1.70
2023-04-01T12:44:07.843Z,1.70
2023-04-01T12:46:58.621Z,1.30
2023-04-01T12:49:57.673Z,1.58
2023-04-01T12:52:41.200Z,1.60
2023-04-01T12:55:37.263Z,1.50
2023-04-01T12:58:38.671Z,2.33
2023-04-01T13:01:29.567Z,1.77
2023-04-01T13:04:26.654Z,1.80
2023-04-01T13:07:08.527Z,1.80
2023-04-01T13:09:50.604Z,1.80
2023-04-01T13:12:42.728Z,1.63
2023-04-01T13:15:28.420Z,1.83
2023-04-01T13:18:03.557Z,1.80
2023-04-01T13:20:46.995Z,1.98
2023-04-01T13:23:32.390Z,2.00
2023-04-01T13:26:14.236Z,2.05
2023-04-01T13:28:49.565Z,1.90
2023-04-01T13:31:47.115Z,1.73
2023-04-01T13:34:26.229Z,1.70
2023-04-01T13:37:05.859Z,1.95
2023-04-01T13:39:59.002Z,2.00
2023-04-01T13:42:32.088Z,1.45
2023-04-01T13:45:11.369Z,1.55
2023-04-01T13:48:22.131Z,1.80
2023-04-01T13:51:31.524Z,1.67
2023-04-01T13:54:23.042Z,2.63
2023-04-01T13:57:09.381Z,1.85
2023-04-01T13:59:50.584Z,1.50
2023-04-01T14:02:44.668Z,1.63
2023-04-01T14:05:43.399Z,1.65
2023-04-01T14:08:22.452Z,2.10
2023-04-01T14:11:00.556Z,1.80
2023-04-01T14:13:38.692Z,1.48
2023-04-01T14:16:26.464Z,1.88
2023-04-01T14:19:12.651Z,1.70
2023-04-01T14:21:45.352Z,1.60
2023-04-01T14:24:51.801Z,1.60
2023-04-01T14:27:31.235Z,2.17
2023-04-01T14:30:13.165Z,1.63
2023-04-01T14:32:50.453Z,1.52
2023-04-01T14:35:30.376Z,1.67
2023-04-01T14:38:11.535Z,1.57
2023-04-01T14:40:56.119Z,1.80
2023-04-01T14:43:49.174Z,1.50
2023-04-01T14:46:33.125Z,1.70
2023-04-01T14:49:04.794Z,1.40
2023-04-01T14:51:38.254Z,1.40
2023-04-01T14:54:10.951Z,1.52
2023-04-01T14:56:44.180Z,1.50
2023-04-01T14:59:17.570Z,1.80
2023-04-01T15:01:57.645Z,1.33
2023-04-01T15:04:50.571Z,1.30
2023-04-01T15:07:38.287Z,1.65
2023-04-01T15:10:20.487Z,1.85
2023-04-01T15:12:56.651Z,1.60
2023-04-01T15:15:35.147Z,1.23
2023-04-01T15:18:11.233Z,1.33
2023-04-01T15:21:07.503Z,1.13
2023-04-01T15:23:48.379Z,1.60
2023-04-01T15:26:28.229Z,1.00
2023-04-01T15:29:12.310Z,1.25
2023-04-01T15:31:46.757Z,1.08
2023-04-01T15:34:28.394Z,0.90
2023-04-01T15:37:02.464Z,1.13
2023-04-01T15:39:47.212Z,0.90
2023-04-01T15:42:33.980Z,1.23
2023-04-01T15:45:16.242Z,1.45
2023-04-01T15:47:47.882Z,1.10
2023-04-01T15:51:06.432Z,1.20
2023-04-01T15:53:56.816Z,0.80
2023-04-01T15:56:40.762Z,1.27
2023-04-01T15:59:22.791Z,1.00
2023-04-01T16:01:59.431Z,1.40
2023-04-01T16:04:44.273Z,1.27
2023-04-01T16:07:26.539Z,0.98
2023-04-01T16:10:09.761Z,1.10
2023-04-01T16:12:53.289Z,1.67
2023-04-01T16:15:29.451Z,1.33
2023-04-01T16:18:23.262Z,1.00
2023-04-01T16:20:57.840Z,1.40
2023-04-01T16:23:32.125Z,1.17
2023-04-01T16:26:07.846Z,1.30
2023-04-01T16:28:42.269Z,1.30
2023-04-01T16:31:17.648Z,1.30
2023-04-01T16:33:53.124Z,0.88
2023-04-01T16:36:30.143Z,1.02
2023-04-01T16:39:13.997Z,1.00
2023-04-01T16:41:49.682Z,0.93
2023-04-01T16:44:24.328Z,1.00
2023-04-01T16:46:54.615Z,1.33
2023-04-01T16:49:31.545Z,1.20
2023-04-01T16:52:14.713Z,1.10
2023-04-01T16:54:48.269Z,1.00
2023-04-01T16:57:23.604Z,0.90
2023-04-01T17:00:03.062Z,1.30
2023-04-01T17:02:36.024Z,0.98
2023-04-01T17:05:07.906Z,1.02
2023-04-01T17:07:51.510Z,0.95
2023-04-01T17:10:35.934Z,1.00
2023-04-01T17:13:31.522Z,1.27
2023-04-01T17:16:14.900Z,1.08
2023-04-01T17:18:50.851Z,0.95
2023-04-01T17:21:23.232Z,1.00
2023-04-01T17:23:55.093Z,0.98
2023-04-01T17:26:32.421Z,1.05
2023-04-01T17:29:09.615Z,1.08
2023-04-01T17:31:48.084Z,1.08
2023-04-01T17:34:41.885Z,0.75
2023-04-01T17:37:33.261Z,1.63
2023-04-01T17:40:17.540Z,1.20
2023-04-01T17:42:54.224Z,1.10
2023-04-01T17:45:26.360Z,1.20
2023-04-01T17:48:10.393Z,1.15
2023-04-01T17:50:50.966Z,1.10
2023-04-01T17:53:32.408Z,1.20
2023-04-01T17:56:11.193Z,1.60
2023-04-01T17:58:47.419Z,1.20
2023-04-01T18:01:32.408Z,1.10
2023-04-01T18:04:12.514Z,1.27
2023-04-01T18:06:56.873Z,1.00
2023-04-01T18:09:37.444Z,1.05
2023-04-01T18:12:16.735Z,1.40
2023-04-01T18:14:59.512Z,1.30
2023-04-01T18:17:32.403Z,1.20
2023-04-01T18:20:38.002Z,1.40
2023-04-01T18:23:14.387Z,1.30
2023-04-01T18:25:46.736Z,0.85
2023-04-01T18:28:25.858Z,0.90
2023-04-01T18:30:58.083Z,1.45
2023-04-01T18:33:31.268Z,0.90
2023-04-01T18:36:15.489Z,1.00
2023-04-01T18:38:51.529Z,1.00
2023-04-01T18:41:28.318Z,1.25
2023-04-01T18:44:06.173Z,1.00
2023-04-01T18:46:41.769Z,1.42
2023-04-01T18:49:19.002Z,1.13
2023-04-01T18:51:54.784Z,0.90
2023-04-01T18:54:29.237Z,1.83
2023-04-01T18:57:06.553Z,1.35
2023-04-01T18:59:41.432Z,1.33
2023-04-01T19:02:22.745Z,1.58
2023-04-01T19:04:59.474Z,1.13
2023-04-01T19:07:44.722Z,0.88
2023-04-01T19:10:29.142Z,1.35
2023-04-01T19:13:15.770Z,1.13
2023-04-01T19:15:51.430Z,1.00
2023-04-01T19:18:48.912Z,0.95
2023-04-01T19:21:21.630Z,1.45
2023-04-01T19:24:14.677Z,0.90
2023-04-01T19:26:48.185Z,0.98
2023-04-01T19:29:32.357Z,1.50
2023-04-01T19:32:12.970Z,1.00
2023-04-01T19:34:51.826Z,0.90
2023-04-01T19:37:31.578Z,1.20
2023-04-01T19:40:19.007Z,0.98
2023-04-01T19:42:55.651Z,1.00
2023-04-01T19:45:36.495Z,0.90
2023-04-01T19:48:15.711Z,0.90
2023-04-01T19:50:53.159Z,1.33
2023-04-01T19:53:28.058Z,0.70
2023-04-01T19:56:09.037Z,0.90
2023-04-01T19:58:45.181Z,1.23
2023-04-01T20:01:20.962Z,1.27
2023-04-01T20:03:52.966Z,1.00
2023-04-01T20:06:28.176Z,1.00
2023-04-01T20:09:12.280Z,1.13
2023-04-01T20:11:56.062Z,0.98
2023-04-01T20:14:32.403Z,0.90
2023-04-01T20:17:20.755Z,0.85
2023-04-01T20:19:57.455Z,0.82
2023-04-01T20:22:36.697Z,0.90
2023-04-01T20:25:14.865Z,0.65
2023-04-01T20:27:51.335Z,0.70
2023-04-01T20:30:36.837Z,0.90
2023-04-01T20:33:19.744Z,1.00
2023-04-01T20:36:02.236Z,0.93
2023-04-01T20:39:05.838Z,1.10
2023-04-01T20:41:39.600Z,0.80
2023-04-01T20:44:13.143Z,0.80
2023-04-01T20:46:51.575Z,0.60
2023-04-01T20:49:40.341Z,0.70
2023-04-01T20:52:28.638Z,0.85
2023-04-01T20:55:32.765Z,0.70
2023-04-01T20:58:13.846Z,0.95
2023-04-01T21:00:56.126Z,1.23
2023-04-01T21:03:40.480Z,0.80
2023-04-01T21:06:37.815Z,1.38
2023-04-01T21:09:25.829Z,1.10
2023-04-01T21:12:03.513Z,0.80
2023-04-01T21:14:53.534Z,0.75
2023-04-01T21:17:40.837Z,1.00
2023-04-01T21:20:21.339Z,0.82
2023-04-01T21:23:13.213Z,0.90
2023-04-01T21:26:03.347Z,0.90
2023-04-01T21:28:37.428Z,0.95
2023-04-01T21:31:33.579Z,0.87
2023-04-01T21:34:36.274Z,0.90
2023-04-01T21:37:36.583Z,0.88
2023-04-01T21:40:27.978Z,1.00
2023-04-01T21:43:06.762Z,0.65
2023-04-01T21:45:54.173Z,0.63
2023-04-01T21:48:49.122Z,0.90
2023-04-01T21:51:45.956Z,0.85
2023-04-01T21:54:33.356Z,1.08
2023-04-01T21:57:46.828Z,0.57
2023-04-01T22:00:19.485Z,0.80
2023-04-01T22:03:40.943Z,0.70
2023-04-01T22:06:18.344Z,0.60
2023-04-01T22:09:01.227Z,0.60
2023-04-01T22:11:50.726Z,1.10
2023-04-01T22:14:27.420Z,0.80
2023-04-01T22:17:04.216Z,0.88
2023-04-01T22:19:42.309Z,0.68
2023-04-01T22:22:19.615Z,0.65
2023-04-01T22:24:59.093Z,0.77
2023-04-01T22:27:32.884Z,0.77
2023-04-01T22:30:17.547Z,0.60
2023-04-01T22:32:47.405Z,0.57
2023-04-01T22:35:27.919Z,0.95
2023-04-01T22:38:05.073Z,0.63
2023-04-01T22:40:43.530Z,0.60
2023-04-01T22:43:15.230Z,0.70
2023-04-01T22:46:03.381Z,0.95
2023-04-01T22:48:39.430Z,0.70
2023-04-01T22:51:15.169Z,0.70
2023-04-01T22:54:01.637Z,0.75
2023-04-01T22:56:33.506Z,0.60
2023-04-01T22:59:12.144Z,0.80
2023-04-01T23:01:46.937Z,0.88
2023-04-01T23:04:19.327Z,0.65
2023-04-01T23:06:53.462Z,0.80
2023-04-01T23:09:24.149Z,0.70
2023-04-01T23:11:55.322Z,0.80
2023-04-01T23:14:39.191Z,0.90
2023-04-01T23:17:18.495Z,0.77
2023-04-01T23:19:53.974Z,1.02
2023-04-01T23:22:29.919Z,0.65
2023-04-01T23:25:07.046Z,0.50
2023-04-01T23:27:41.532Z,0.80
2023-04-01T23:30:52.539Z,0.70
2023-04-01T23:33:29.187Z,0.70
2023-04-01T23:36:06.014Z,0.57
2023-04-01T23:38:36.705Z,0.60
2023-04-01T23:41:05.880Z,0.70
2023-04-01T23:43:38.513Z,0.70
2023-04-01T23:46:09.016Z,0.70
2023-04-01T23:48:42.340Z,0.73
2023-04-01T23:51:17.004Z,0.60
2023-04-01T23:53:48.166Z,0.80
2023-04-01T23:56:19.343Z,0.70
2023-04-01T23:58:53.382Z,0.80
